createdAt,value
2022-12-16T00:01:27.448Z,55.72
2022-12-16T00:03:56.247Z,56.38
2022-12-16T00:06:24.876Z,54.80
2022-12-16T00:08:51.824Z,53.95
2022-12-16T00:11:19.875Z,55.42
2022-12-16T00:13:47.405Z,52.15
2022-12-16T00:16:16.495Z,52.95
2022-12-16T00:18:43.583Z,53.35
2022-12-16T00:21:10.607Z,53.35
2022-12-16T00:23:39.485Z,54.22
2022-12-16T00:26:06.268Z,53.90
2022-12-16T00:28:32.933Z,51.33
2022-12-16T00:30:59.742Z,51.75
2022-12-16T00:33:27.666Z,53.22
2022-12-16T00:35:55.161Z,53.50
2022-12-16T00:38:23.729Z,51.47
2022-12-16T00:40:50.444Z,53.08
2022-12-16T00:43:20.294Z,51.53
2022-12-16T00:45:48.176Z,52.67
2022-12-16T00:48:15.310Z,52.08
2022-12-16T00:50:46.085Z,51.90
2022-12-16T00:53:12.594Z,51.88
2022-12-16T00:55:39.101Z,51.65
2022-12-16T00:58:05.997Z,52.72
2022-12-16T01:00:32.624Z,52.88
2022-12-16T01:02:59.346Z,50.38
2022-12-16T01:05:27.036Z,53.47
2022-12-16T01:07:54.979Z,50.85
2022-12-16T01:10:22.833Z,52.25
2022-12-16T01:12:49.737Z,50.45
2022-12-16T01:15:18.359Z,49.35
2022-12-16T01:17:45.109Z,50.65
2022-12-16T01:20:13.238Z,48.92
2022-12-16T01:22:39.924Z,48.15
2022-12-16T01:25:06.957Z,49.20
2022-12-16T01:27:33.761Z,48.05
2022-12-16T01:30:00.276Z,48.88
2022-12-16T01:32:26.844Z,47.88
2022-12-16T01:34:55.401Z,47.65
2022-12-16T01:37:23.024Z,48.13
2022-12-16T01:39:50.498Z,47.92
2022-12-16T01:42:20.315Z,48.22
2022-12-16T01:44:49.339Z,48.13
2022-12-16T01:47:25.677Z,48.33
2022-12-16T01:49:54.953Z,48.22
2022-12-16T01:52:28.085Z,49.70
2022-12-16T01:55:02.286Z,48.75
2022-12-16T01:57:41.097Z,48.50
2022-12-16T02:00:09.104Z,47.08
2022-12-16T02:02:36.145Z,47.20
2022-12-16T02:05:21.178Z,47.92
2022-12-16T02:08:02.761Z,48.25
2022-12-16T02:10:34.305Z,46.80
2022-12-16T02:13:14.425Z,47.80
2022-12-16T02:15:59.608Z,48.28
2022-12-16T02:18:33.399Z,46.70
2022-12-16T02:21:24.557Z,45.67
2022-12-16T02:23:54.126Z,45.95
2022-12-16T02:26:53.824Z,47.53
2022-12-16T02:29:45.161Z,45.22
2022-12-16T02:32:32.063Z,45.30
2022-12-16T02:35:15.034Z,45.95
2022-12-16T02:37:48.877Z,47.42
2022-12-16T02:40:24.822Z,45.50
2022-12-16T02:42:58.067Z,44.90
2022-12-16T02:45:31.029Z,45.05
2022-12-16T02:47:57.807Z,45.08
2022-12-16T02:50:36.274Z,43.72
2022-12-16T02:53:07.069Z,44.15
2022-12-16T02:55:52.646Z,44.47
2022-12-16T02:58:26.298Z,44.35
2022-12-16T03:01:08.148Z,43.28
2022-12-16T03:03:47.185Z,46.38
2022-12-16T03:06:17.141Z,44.28
2022-12-16T03:08:49.585Z,43.00
2022-12-16T03:11:16.090Z,43.20
2022-12-16T03:13:47.992Z,44.90
2022-12-16T03:16:18.813Z,44.10
2022-12-16T03:18:50.420Z,43.83
2022-12-16T03:21:19.023Z,42.45
2022-12-16T03:23:48.418Z,44.47
2022-12-16T03:27:16.624Z,44.22
2022-12-16T03:30:12.221Z,42.13
2022-12-16T03:32:43.841Z,42.85
2022-12-16T03:35:14.542Z,42.55
2022-12-16T03:37:44.152Z,44.38
2022-12-16T03:40:12.842Z,44.08
2022-12-16T03:42:40.332Z,43.47
2022-12-16T03:45:11.416Z,43.10
2022-12-16T03:47:38.052Z,43.90
2022-12-16T03:50:05.041Z,42.92
2022-12-16T03:52:31.596Z,43.33
2022-12-16T03:54:58.304Z,44.30
2022-12-16T03:57:24.813Z,44.20
2022-12-16T03:59:51.302Z,44.70
2022-12-16T04:02:17.982Z,45.13
2022-12-16T04:04:44.737Z,44.95
2022-12-16T04:07:20.249Z,45.25
2022-12-16T04:09:48.227Z,44.65
2022-12-16T04:12:33.222Z,44.78
2022-12-16T04:15:18.658Z,45.83
2022-12-16T04:18:04.222Z,44.92
2022-12-16T04:20:59.080Z,45.45
2022-12-16T04:23:46.440Z,44.95
2022-12-16T04:26:13.006Z,44.75
2022-12-16T04:28:39.580Z,45.38
2022-12-16T04:31:06.716Z,46.38
2022-12-16T04:33:51.914Z,46.10
2022-12-16T04:36:37.848Z,46.75
2022-12-16T04:39:23.733Z,45.42
2022-12-16T04:42:13.024Z,44.33
2022-12-16T04:44:58.890Z,46.10
2022-12-16T04:47:44.856Z,46.65
2022-12-16T04:50:30.196Z,45.13
2022-12-16T04:53:15.117Z,46.28
2022-12-16T04:56:04.147Z,47.75
2022-12-16T04:58:49.780Z,46.42
2022-12-16T05:01:34.805Z,47.40
2022-12-16T05:04:19.923Z,47.22
2022-12-16T05:07:05.090Z,46.08
2022-12-16T05:09:49.889Z,46.22
2022-12-16T05:12:34.792Z,47.55
2022-12-16T05:15:19.686Z,47.33
2022-12-16T05:18:04.543Z,48.63
2022-12-16T05:20:49.469Z,47.80
2022-12-16T05:23:34.719Z,49.95
2022-12-16T05:26:20.287Z,49.95
2022-12-16T05:29:05.049Z,49.88
2022-12-16T05:31:49.874Z,48.33
2022-12-16T05:34:34.662Z,47.45
2022-12-16T05:37:19.608Z,48.28
2022-12-16T05:40:04.501Z,47.45
2022-12-16T05:42:49.664Z,49.78
2022-12-16T05:48:19.224Z,46.40
2022-12-16T05:51:04.126Z,48.13
2022-12-16T05:53:48.857Z,48.17
2022-12-16T05:56:33.803Z,48.97
2022-12-16T06:02:03.736Z,49.30
2022-12-16T06:04:48.940Z,49.95
2022-12-16T06:10:18.960Z,48.80
2022-12-16T06:13:06.972Z,51.03
2022-12-16T06:15:52.052Z,52.83
2022-12-16T06:21:22.873Z,50.57
2022-12-16T06:24:07.790Z,51.60
2022-12-16T06:26:52.658Z,53.13
2022-12-16T06:29:37.496Z,52.50
2022-12-16T06:32:22.837Z,52.67
2022-12-16T06:35:07.754Z,53.05
2022-12-16T06:37:52.759Z,53.58
2022-12-16T06:43:22.488Z,55.72
2022-12-16T06:46:07.249Z,55.50
2022-12-16T06:48:52.086Z,55.42
2022-12-16T06:51:36.864Z,55.78
2022-12-16T06:54:22.228Z,53.72
2022-12-16T06:57:07.104Z,56.65
2022-12-16T06:59:52.188Z,54.38
2022-12-16T07:05:23.037Z,56.57
2022-12-16T07:08:09.975Z,60.40
2022-12-16T07:11:00.348Z,58.78
2022-12-16T07:13:54.197Z,58.10
2022-12-16T07:19:24.116Z,57.40
2022-12-16T07:24:53.791Z,59.08
2022-12-16T07:27:39.025Z,62.83
2022-12-16T07:30:24.329Z,61.40
2022-12-16T07:33:09.232Z,66.70
2022-12-16T07:35:54.148Z,67.10
2022-12-16T07:38:38.977Z,67.60
2022-12-16T07:41:24.299Z,67.13
2022-12-16T07:44:09.311Z,69.93
2022-12-16T07:49:40.242Z,76.32
2022-12-16T07:52:25.155Z,73.88
2022-12-16T07:55:09.949Z,74.25
2022-12-16T07:57:55.138Z,74.57
2022-12-16T08:00:39.918Z,79.07
2022-12-16T08:03:24.978Z,80.22
2022-12-16T08:06:10.197Z,83.95
2022-12-16T08:11:50.392Z,87.88
2022-12-16T08:14:35.222Z,82.60
2022-12-16T08:17:19.933Z,93.55
2022-12-16T08:20:05.014Z,91.60
2022-12-16T08:22:50.240Z,96.65
2022-12-16T08:25:36.279Z,92.10
2022-12-16T08:31:09.981Z,86.90
2022-12-16T08:33:55.572Z,89.95
2022-12-16T08:36:40.941Z,89.25
2022-12-16T08:39:25.990Z,91.05
2022-12-16T08:44:55.722Z,96.97
2022-12-16T08:47:42.949Z,98.85
2022-12-16T08:53:12.665Z,91.10
2022-12-16T08:55:58.169Z,96.00
2022-12-16T08:58:42.978Z,98.57
2022-12-16T09:01:27.868Z,100.32
2022-12-16T09:04:13.124Z,106.93
2022-12-16T09:06:58.356Z,99.93
2022-12-16T09:09:43.753Z,98.72
2022-12-16T09:12:28.651Z,89.93
2022-12-16T09:15:13.753Z,80.13
2022-12-16T09:18:00.233Z,76.43
2022-12-16T09:20:45.554Z,66.00
2022-12-16T09:23:31.183Z,62.63
2022-12-16T09:26:16.522Z,58.85
2022-12-16T09:31:46.428Z,57.78
2022-12-16T09:37:16.152Z,50.75
2022-12-16T09:40:01.129Z,53.72
2022-12-16T09:45:51.263Z,56.47
2022-12-16T09:48:46.023Z,54.13
2022-12-16T09:51:32.201Z,48.60
2022-12-16T09:54:20.611Z,50.30
2022-12-16T09:57:07.136Z,51.42
2022-12-16T09:59:59.497Z,56.80
2022-12-16T10:02:44.936Z,52.25
2022-12-16T10:05:41.010Z,51.30
2022-12-16T10:08:44.261Z,46.42
2022-12-16T10:12:04.197Z,39.03
2022-12-16T10:14:57.643Z,40.67
2022-12-16T10:17:44.661Z,42.15
2022-12-16T10:20:57.653Z,42.28
2022-12-16T10:24:18.079Z,35.92
2022-12-16T10:27:22.967Z,38.92
2022-12-16T10:30:07.787Z,40.27
2022-12-16T10:33:06.067Z,42.95
2022-12-16T10:36:09.571Z,41.40
2022-12-16T10:39:05.845Z,45.17
2022-12-16T10:41:53.872Z,52.47
2022-12-16T10:44:52.789Z,44.45
2022-12-16T10:47:37.938Z,47.10
2022-12-16T10:53:24.026Z,42.08
2022-12-16T10:56:24.236Z,44.03
2022-12-16T10:59:15.301Z,45.20
2022-12-16T11:02:00.816Z,39.25
2022-12-16T11:04:46.148Z,37.55
2022-12-16T11:08:04.266Z,38.92
2022-12-16T11:11:01.857Z,37.67
2022-12-16T11:13:52.229Z,35.10
2022-12-16T11:16:43.508Z,35.05
2022-12-16T11:19:46.705Z,37.97
2022-12-16T11:22:36.316Z,36.53
2022-12-16T11:25:33.416Z,38.42
2022-12-16T11:28:22.618Z,40.47
2022-12-16T11:31:14.291Z,41.95
2022-12-16T11:34:01.036Z,41.95
2022-12-16T11:36:46.329Z,40.97
2022-12-16T11:39:38.035Z,42.72
2022-12-16T11:42:24.921Z,38.65
2022-12-16T11:45:16.368Z,41.78
2022-12-16T11:48:07.398Z,40.90
2022-12-16T11:50:59.437Z,42.10
2022-12-16T11:53:51.909Z,40.15
2022-12-16T11:56:42.793Z,37.45
2022-12-16T11:59:46.880Z,37.67
2022-12-16T12:02:39.803Z,42.20
2022-12-16T12:05:25.356Z,38.13
2022-12-16T12:08:23.366Z,40.42
2022-12-16T12:11:14.878Z,39.03
2022-12-16T12:14:18.176Z,37.33
2022-12-16T12:17:25.898Z,36.67
2022-12-16T12:20:35.709Z,34.90
2022-12-16T12:23:25.968Z,37.17
2022-12-16T12:26:25.164Z,40.28
2022-12-16T12:29:17.848Z,39.25
2022-12-16T12:32:15.732Z,37.50
2022-12-16T12:35:21.657Z,38.42
2022-12-16T12:38:32.741Z,39.25
2022-12-16T12:41:32.769Z,39.35
2022-12-16T12:44:20.969Z,41.10
2022-12-16T12:47:15.116Z,44.08
2022-12-16T12:50:12.425Z,48.78
2022-12-16T12:53:15.687Z,49.17
2022-12-16T12:56:36.709Z,47.47
2022-12-16T12:59:30.745Z,47.20
2022-12-16T13:02:17.727Z,45.85
2022-12-16T13:05:05.422Z,41.25
2022-12-16T13:07:51.272Z,44.03
2022-12-16T13:10:39.598Z,41.10
2022-12-16T13:13:34.570Z,41.42
2022-12-16T13:16:22.313Z,43.35
2022-12-16T13:19:27.894Z,42.65
2022-12-16T13:22:13.289Z,42.00
2022-12-16T13:25:04.798Z,41.45
2022-12-16T13:28:05.400Z,41.13
2022-12-16T13:30:52.496Z,41.25
2022-12-16T13:33:46.949Z,40.88
2022-12-16T13:36:34.235Z,39.10
2022-12-16T13:39:39.714Z,37.47
2022-12-16T13:42:25.027Z,39.95
2022-12-16T13:45:09.879Z,36.78
2022-12-16T13:48:00.886Z,41.28
2022-12-16T13:51:18.021Z,39.10
2022-12-16T13:54:12.147Z,36.63
2022-12-16T13:57:04.172Z,39.50
2022-12-16T13:59:51.200Z,39.15
2022-12-16T14:02:57.516Z,41.22
2022-12-16T14:05:54.835Z,38.72
2022-12-16T14:08:43.083Z,32.38
2022-12-16T14:12:01.869Z,30.17
2022-12-16T14:14:57.326Z,30.55
2022-12-16T14:20:47.446Z,30.60
2022-12-16T14:23:58.787Z,26.15
2022-12-16T14:26:44.831Z,28.58
2022-12-16T14:29:51.085Z,27.75
2022-12-16T14:32:51.697Z,29.02
2022-12-16T14:35:43.148Z,29.38
2022-12-16T14:38:44.741Z,30.15
2022-12-16T14:41:38.306Z,32.22
2022-12-16T14:44:34.193Z,32.10
2022-12-16T14:47:19.491Z,29.98
2022-12-16T14:50:12.358Z,32.30
2022-12-16T14:52:58.463Z,32.03
2022-12-16T14:55:51.802Z,32.45
2022-12-16T14:58:39.639Z,32.55
2022-12-16T15:01:39.558Z,36.08
2022-12-16T15:04:34.078Z,37.10
2022-12-16T15:07:26.331Z,38.93
2022-12-16T15:10:14.776Z,36.72
2022-12-16T15:13:02.498Z,34.45
2022-12-16T15:15:50.325Z,33.33
2022-12-16T15:18:43.750Z,32.53
2022-12-16T15:21:29.138Z,32.63
2022-12-16T15:24:14.791Z,32.72
2022-12-16T15:26:59.658Z,31.83
2022-12-16T15:29:52.624Z,32.00
2022-12-16T15:32:43.729Z,31.42
2022-12-16T15:35:50.819Z,29.65
2022-12-16T15:38:52.110Z,27.83
2022-12-16T15:41:47.982Z,29.30
2022-12-16T15:44:38.375Z,28.00
2022-12-16T15:47:42.171Z,30.75
2022-12-16T15:50:31.722Z,30.33
2022-12-16T15:53:48.586Z,29.52
2022-12-16T15:56:41.323Z,29.88
2022-12-16T15:59:39.994Z,30.60
2022-12-16T16:02:41.869Z,30.05
2022-12-16T16:05:34.306Z,31.60
2022-12-16T16:08:19.565Z,34.47
2022-12-16T16:11:04.888Z,32.03
2022-12-16T16:13:49.681Z,33.42
2022-12-16T16:16:35.933Z,34.33
2022-12-16T16:19:21.733Z,29.83
2022-12-16T16:22:07.318Z,31.40
2022-12-16T16:24:52.483Z,30.75
2022-12-16T16:27:38.226Z,32.75
2022-12-16T16:30:23.953Z,33.00
2022-12-16T16:33:08.668Z,34.35
2022-12-16T16:35:54.024Z,32.83
2022-12-16T16:38:38.945Z,34.38
2022-12-16T16:41:27.255Z,31.73
2022-12-16T16:44:15.279Z,35.92
2022-12-16T16:47:04.744Z,34.42
2022-12-16T16:49:54.389Z,33.08
2022-12-16T16:52:42.805Z,32.60
2022-12-16T16:55:37.733Z,31.13
2022-12-16T16:58:32.373Z,33.47
2022-12-16T17:01:17.734Z,33.45
2022-12-16T17:04:03.499Z,32.88
2022-12-16T17:06:50.773Z,34.35
2022-12-16T17:09:35.653Z,35.75
2022-12-16T17:12:20.540Z,33.45
2022-12-16T17:15:05.385Z,33.72
2022-12-16T17:17:50.420Z,41.25
2022-12-16T17:23:20.322Z,43.15
2022-12-16T17:26:05.724Z,40.05
2022-12-16T17:28:50.873Z,39.03
2022-12-16T17:31:35.715Z,38.53
2022-12-16T17:34:20.934Z,39.05
2022-12-16T17:37:05.929Z,35.83
2022-12-16T17:39:50.988Z,35.80
2022-12-16T17:45:21.141Z,42.87
2022-12-16T17:48:06.068Z,40.55
2022-12-16T17:50:51.254Z,39.00
2022-12-16T17:53:36.657Z,37.65
2022-12-16T17:56:23.927Z,37.65
2022-12-16T17:59:11.052Z,38.50
2022-12-16T18:01:56.509Z,36.38
2022-12-16T18:04:41.847Z,35.72
2022-12-16T18:07:26.661Z,34.47
2022-12-16T18:10:11.856Z,37.50
2022-12-16T18:12:57.213Z,33.80
2022-12-16T18:15:42.106Z,33.65
2022-12-16T18:18:26.909Z,34.65
2022-12-16T18:21:11.735Z,35.17
2022-12-16T18:23:56.568Z,36.55
2022-12-16T18:26:41.538Z,35.72
2022-12-16T18:29:26.293Z,35.58
2022-12-16T18:32:11.161Z,34.90
2022-12-16T18:34:55.954Z,38.40
2022-12-16T18:37:42.052Z,38.00
2022-12-16T18:40:27.622Z,40.17
2022-12-16T18:43:12.801Z,42.08
2022-12-16T18:45:57.673Z,43.85
2022-12-16T18:48:42.880Z,44.70
2022-12-16T18:51:28.276Z,44.53
2022-12-16T18:54:13.177Z,43.63
2022-12-16T18:56:58.089Z,44.00
2022-12-16T18:59:42.969Z,42.22
2022-12-16T19:02:28.473Z,43.33
2022-12-16T19:05:13.436Z,43.13
2022-12-16T19:07:58.377Z,42.75
2022-12-16T19:10:43.487Z,42.72
2022-12-16T19:13:32.400Z,42.97
2022-12-16T19:16:17.860Z,44.60
2022-12-16T19:19:03.016Z,44.22
2022-12-16T19:24:41.401Z,49.67
2022-12-16T19:27:26.544Z,49.20
2022-12-16T19:32:56.305Z,53.83
2022-12-16T19:35:41.408Z,63.38
2022-12-16T19:41:15.689Z,59.85
2022-12-16T19:44:05.694Z,57.70
2022-12-16T19:46:51.654Z,61.08
2022-12-16T19:52:41.972Z,59.60
2022-12-16T19:55:27.177Z,57.83
2022-12-16T19:58:12.441Z,59.10
2022-12-16T20:00:57.383Z,58.25
2022-12-16T20:03:42.853Z,59.67
2022-12-16T20:06:28.448Z,57.00
2022-12-16T20:09:14.746Z,58.85
2022-12-16T20:12:01.373Z,59.03
2022-12-16T20:14:47.137Z,58.88
2022-12-16T20:17:32.738Z,60.97
2022-12-16T20:20:17.662Z,58.08
2022-12-16T20:23:02.466Z,60.15
2022-12-16T20:25:47.348Z,59.78
2022-12-16T20:28:32.120Z,60.67
2022-12-16T20:31:21.673Z,80.10
2022-12-16T20:34:16.191Z,56.92
2022-12-16T20:37:01.442Z,61.73
2022-12-16T20:39:52.942Z,62.33
2022-12-16T20:45:27.409Z,62.35
2022-12-16T20:48:12.872Z,65.57
2022-12-16T20:50:57.547Z,70.57
2022-12-16T20:53:43.035Z,69.93
2022-12-16T20:56:28.289Z,70.00
2022-12-16T20:59:13.834Z,69.20
2022-12-16T21:05:23.492Z,66.67
2022-12-16T21:08:09.411Z,68.30
2022-12-16T21:10:56.026Z,67.90
2022-12-16T21:13:41.789Z,66.88
2022-12-16T21:16:26.508Z,67.22
2022-12-16T21:19:11.293Z,66.13
2022-12-16T21:21:56.655Z,71.90
2022-12-16T21:24:42.158Z,66.90
2022-12-16T21:27:27.500Z,68.15
2022-12-16T21:30:12.189Z,69.82
2022-12-16T21:32:57.491Z,71.30
2022-12-16T21:38:31.611Z,69.00
2022-12-16T21:41:16.424Z,68.30
2022-12-16T21:44:01.236Z,69.47
2022-12-16T21:46:46.659Z,70.80
2022-12-16T21:49:31.481Z,70.20
2022-12-16T21:52:16.828Z,72.95
2022-12-16T21:55:01.935Z,70.82
2022-12-16T22:00:32.960Z,62.35
2022-12-16T22:03:17.738Z,65.22
2022-12-16T22:06:02.967Z,69.13
2022-12-16T22:11:33.719Z,64.50
2022-12-16T22:14:18.560Z,64.55
2022-12-16T22:17:05.742Z,69.95
2022-12-16T22:19:50.901Z,69.57
2022-12-16T22:22:37.057Z,70.78
2022-12-16T22:25:22.847Z,76.10
2022-12-16T22:28:07.711Z,72.05
2022-12-16T22:30:52.533Z,68.38
2022-12-16T22:33:41.157Z,72.68
2022-12-16T22:36:26.521Z,72.13
2022-12-16T22:39:11.973Z,72.95
2022-12-16T22:41:56.938Z,71.07
2022-12-16T22:44:42.268Z,74.10
2022-12-16T22:47:27.250Z,74.13
2022-12-16T22:50:12.030Z,72.88
2022-12-16T22:52:56.889Z,74.72
2022-12-16T22:55:41.726Z,71.63
2022-12-16T22:58:29.065Z,73.90
2022-12-16T23:01:14.240Z,72.70
2022-12-16T23:03:59.085Z,70.60
2022-12-16T23:06:44.093Z,70.80
2022-12-16T23:12:14.380Z,64.13
2022-12-16T23:14:59.143Z,70.38
2022-12-16T23:17:44.128Z,72.05
2022-12-16T23:20:29.797Z,74.93
2022-12-16T23:23:15.420Z,74.75
2022-12-16T23:26:00.447Z,70.45
2022-12-16T23:31:30.715Z,65.60
2022-12-16T23:34:15.804Z,69.88
2022-12-16T23:39:45.809Z,62.93
2022-12-16T23:45:15.476Z,61.97
2022-12-16T23:48:00.211Z,66.95
2022-12-16T23:50:44.956Z,70.90
2022-12-16T23:53:30.290Z,67.93
2022-12-16T23:56:17.645Z,72.22
2022-12-16T23:59:03.099Z,70.93
